sensor_id;sensor_type;location;lat;lon;timestamp;temperature;humidity
69359;HTU21D;56520;49.066;8.660;2023-02-28T00:00:22;-2.43;76.07
69359;HTU21D;56520;49.066;8.660;2023-02-28T00:02:48;-2.44;76.08
69359;HTU21D;56520;49.066;8.660;2023-02-28T00:05:18;-2.47;76.30
69359;HTU21D;56520;49.066;8.660;2023-02-28T00:07:44;-2.48;76.14
69359;HTU21D;56520;49.066;8.660;2023-02-28T00:10:12;-2.51;75.95
69359;HTU21D;56520;49.066;8.660;2023-02-28T00:12:38;-2.53;76.50
69359;HTU21D;56520;49.066;8.660;2023-02-28T00:15:09;-2.57;76.46
69359;HTU21D;56520;49.066;8.660;2023-02-28T00:17:35;-2.54;76.87
69359;HTU21D;56520;49.066;8.660;2023-02-28T00:20:01;-2.60;76.14
69359;HTU21D;56520;49.066;8.660;2023-02-28T00:22:27;-2.62;77.26
69359;HTU21D;56520;49.066;8.660;2023-02-28T00:24:52;-2.60;77.14
69359;HTU21D;56520;49.066;8.660;2023-02-28T00:27:18;-2.58;77.34
69359;HTU21D;56520;49.066;8.660;2023-02-28T00:29:43;-2.61;76.81
69359;HTU21D;56520;49.066;8.660;2023-02-28T00:32:11;-2.63;77.44
69359;HTU21D;56520;49.066;8.660;2023-02-28T00:34:36;-2.66;77.16
69359;HTU21D;56520;49.066;8.660;2023-02-28T00:37:03;-2.66;77.36
69359;HTU21D;56520;49.066;8.660;2023-02-28T00:39:29;-2.68;77.44
69359;HTU21D;56520;49.066;8.660;2023-02-28T00:41:55;-2.69;77.82
69359;HTU21D;56520;49.066;8.660;2023-02-28T00:44:20;-2.68;77.88
69359;HTU21D;56520;49.066;8.660;2023-02-28T00:46:46;-2.68;78.23
69359;HTU21D;56520;49.066;8.660;2023-02-28T00:49:12;-2.66;78.34
69359;HTU21D;56520;49.066;8.660;2023-02-28T00:51:37;-2.68;77.79
69359;HTU21D;56520;49.066;8.660;2023-02-28T00:54:03;-2.73;77.90
69359;HTU21D;56520;49.066;8.660;2023-02-28T00:56:30;-2.72;78.66
69359;HTU21D;56520;49.066;8.660;2023-02-28T00:58:56;-2.69;77.82
69359;HTU21D;56520;49.066;8.660;2023-02-28T01:01:21;-2.76;77.87
69359;HTU21D;56520;49.066;8.660;2023-02-28T01:03:47;-2.76;78.14
69359;HTU21D;56520;49.066;8.660;2023-02-28T01:06:12;-2.72;78.04
69359;HTU21D;56520;49.066;8.660;2023-02-28T01:08:37;-2.69;78.02
69359;HTU21D;56520;49.066;8.660;2023-02-28T01:11:11;-2.65;78.37
69359;HTU21D;56520;49.066;8.660;2023-02-28T01:13:37;-2.65;77.91
69359;HTU21D;56520;49.066;8.660;2023-02-28T01:16:03;-2.65;78.14
69359;HTU21D;56520;49.066;8.660;2023-02-28T01:18:29;-2.67;78.05
69359;HTU21D;56520;49.066;8.660;2023-02-28T01:20:54;-2.69;78.19
69359;HTU21D;56520;49.066;8.660;2023-02-28T01:23:23;-2.71;78.16
69359;HTU21D;56520;49.066;8.660;2023-02-28T01:25:52;-2.72;78.59
69359;HTU21D;56520;49.066;8.660;2023-02-28T01:28:17;-2.68;78.75
69359;HTU21D;56520;49.066;8.660;2023-02-28T01:30:47;-2.58;79.50
69359;HTU21D;56520;49.066;8.660;2023-02-28T01:33:13;-2.52;78.69
69359;HTU21D;56520;49.066;8.660;2023-02-28T01:35:38;-2.54;78.66
69359;HTU21D;56520;49.066;8.660;2023-02-28T01:38:03;-2.54;78.92
69359;HTU21D;56520;49.066;8.660;2023-02-28T01:40:29;-2.54;79.17
69359;HTU21D;56520;49.066;8.660;2023-02-28T01:42:54;-2.54;79.02
69359;HTU21D;56520;49.066;8.660;2023-02-28T01:45:25;-2.56;79.17
69359;HTU21D;56520;49.066;8.660;2023-02-28T01:47:55;-2.54;79.16
69359;HTU21D;56520;49.066;8.660;2023-02-28T01:50:26;-2.52;79.43
69359;HTU21D;56520;49.066;8.660;2023-02-28T01:52:56;-2.53;78.89
69359;HTU21D;56520;49.066;8.660;2023-02-28T01:55:24;-2.57;79.01
69359;HTU21D;56520;49.066;8.660;2023-02-28T01:57:56;-2.57;79.21
69359;HTU21D;56520;49.066;8.660;2023-02-28T02:00:25;-2.57;79.47
69359;HTU21D;56520;49.066;8.660;2023-02-28T02:02:55;-2.53;79.56
69359;HTU21D;56520;49.066;8.660;2023-02-28T02:05:23;-2.53;79.84
69359;HTU21D;56520;49.066;8.660;2023-02-28T02:07:52;-2.50;79.56
69359;HTU21D;56520;49.066;8.660;2023-02-28T02:10:33;-2.52;79.37
69359;HTU21D;56520;49.066;8.660;2023-02-28T02:13:09;-2.51;80.02
69359;HTU21D;56520;49.066;8.660;2023-02-28T02:18:50;-2.52;79.88
69359;HTU21D;56520;49.066;8.660;2023-02-28T02:35:54;-2.49;80.04
69359;HTU21D;56520;49.066;8.660;2023-02-28T02:38:52;-2.48;80.18
69359;HTU21D;56520;49.066;8.660;2023-02-28T02:41:36;-2.49;80.10
69359;HTU21D;56520;49.066;8.660;2023-02-28T02:44:36;-2.44;80.03
69359;HTU21D;56520;49.066;8.660;2023-02-28T02:47:10;-2.49;79.92
69359;HTU21D;56520;49.066;8.660;2023-02-28T02:49:44;-2.43;80.08
69359;HTU21D;56520;49.066;8.660;2023-02-28T02:52:14;-2.42;80.15
69359;HTU21D;56520;49.066;8.660;2023-02-28T02:54:44;-2.43;80.06
69359;HTU21D;56520;49.066;8.660;2023-02-28T02:57:21;-2.45;80.05
69359;HTU21D;56520;49.066;8.660;2023-02-28T02:59:48;-2.46;80.29
69359;HTU21D;56520;49.066;8.660;2023-02-28T03:02:15;-2.43;80.56
69359;HTU21D;56520;49.066;8.660;2023-02-28T03:04:50;-2.44;80.40
69359;HTU21D;56520;49.066;8.660;2023-02-28T03:07:16;-2.45;80.26
69359;HTU21D;56520;49.066;8.660;2023-02-28T03:09:50;-2.41;80.72
69359;HTU21D;56520;49.066;8.660;2023-02-28T03:12:16;-2.33;80.42
69359;HTU21D;56520;49.066;8.660;2023-02-28T03:14:51;-2.24;80.08
69359;HTU21D;56520;49.066;8.660;2023-02-28T03:17:39;-2.22;80.07
69359;HTU21D;56520;49.066;8.660;2023-02-28T03:23:04;-2.19;79.66
69359;HTU21D;56520;49.066;8.660;2023-02-28T03:26:06;-2.14;79.40
69359;HTU21D;56520;49.066;8.660;2023-02-28T03:28:42;-2.19;79.43
69359;HTU21D;56520;49.066;8.660;2023-02-28T03:34:13;-2.24;79.66
69359;HTU21D;56520;49.066;8.660;2023-02-28T03:36:44;-2.22;79.76
69359;HTU21D;56520;49.066;8.660;2023-02-28T03:39:24;-2.14;79.73
69359;HTU21D;56520;49.066;8.660;2023-02-28T03:42:06;-2.04;79.48
69359;HTU21D;56520;49.066;8.660;2023-02-28T03:44:38;-1.95;79.30
69359;HTU21D;56520;49.066;8.660;2023-02-28T03:47:16;-1.87;78.97
69359;HTU21D;56520;49.066;8.660;2023-02-28T03:52:21;-1.79;78.61
69359;HTU21D;56520;49.066;8.660;2023-02-28T03:54:51;-1.78;78.54
69359;HTU21D;56520;49.066;8.660;2023-02-28T03:57:37;-1.76;78.47
69359;HTU21D;56520;49.066;8.660;2023-02-28T04:00:42;-1.71;78.39
69359;HTU21D;56520;49.066;8.660;2023-02-28T04:03:06;-1.63;78.09
69359;HTU21D;56520;49.066;8.660;2023-02-28T04:05:31;-1.60;77.79
69359;HTU21D;56520;49.066;8.660;2023-02-28T04:08:07;-1.56;77.79
69359;HTU21D;56520;49.066;8.660;2023-02-28T04:10:33;-1.55;77.69
69359;HTU21D;56520;49.066;8.660;2023-02-28T04:12:59;-1.54;77.47
69359;HTU21D;56520;49.066;8.660;2023-02-28T04:15:24;-1.54;77.66
69359;HTU21D;56520;49.066;8.660;2023-02-28T04:17:50;-1.52;77.38
69359;HTU21D;56520;49.066;8.660;2023-02-28T04:20:16;-1.52;77.12
69359;HTU21D;56520;49.066;8.660;2023-02-28T04:22:41;-1.54;77.38
69359;HTU21D;56520;49.066;8.660;2023-02-28T04:25:07;-1.55;77.53
69359;HTU21D;56520;49.066;8.660;2023-02-28T04:27:33;-1.56;77.60
69359;HTU21D;56520;49.066;8.660;2023-02-28T04:29:59;-1.55;77.42
69359;HTU21D;56520;49.066;8.660;2023-02-28T04:32:24;-1.55;77.61
69359;HTU21D;56520;49.066;8.660;2023-02-28T04:34:50;-1.58;77.53
69359;HTU21D;56520;49.066;8.660;2023-02-28T04:37:15;-1.60;77.64
69359;HTU21D;56520;49.066;8.660;2023-02-28T04:39:41;-1.64;77.60
69359;HTU21D;56520;49.066;8.660;2023-02-28T04:42:07;-1.68;77.73
69359;HTU21D;56520;49.066;8.660;2023-02-28T04:44:33;-1.72;77.68
69359;HTU21D;56520;49.066;8.660;2023-02-28T04:46:58;-1.76;77.81
69359;HTU21D;56520;49.066;8.660;2023-02-28T04:49:24;-1.80;78.16
69359;HTU21D;56520;49.066;8.660;2023-02-28T04:51:49;-1.84;78.21
69359;HTU21D;56520;49.066;8.660;2023-02-28T04:54:15;-1.85;78.18
69359;HTU21D;56520;49.066;8.660;2023-02-28T04:56:41;-1.87;78.32
69359;HTU21D;56520;49.066;8.660;2023-02-28T04:59:07;-1.87;78.26
69359;HTU21D;56520;49.066;8.660;2023-02-28T05:01:33;-1.90;78.26
69359;HTU21D;56520;49.066;8.660;2023-02-28T05:04:01;-1.92;78.61
69359;HTU21D;56520;49.066;8.660;2023-02-28T05:06:28;-1.90;78.57
69359;HTU21D;56520;49.066;8.660;2023-02-28T05:08:54;-1.92;78.61
69359;HTU21D;56520;49.066;8.660;2023-02-28T05:11:25;-1.90;78.64
69359;HTU21D;56520;49.066;8.660;2023-02-28T05:13:52;-1.89;78.52
69359;HTU21D;56520;49.066;8.660;2023-02-28T05:16:18;-1.91;78.60
69359;HTU21D;56520;49.066;8.660;2023-02-28T05:18:44;-1.91;78.75
69359;HTU21D;56520;49.066;8.660;2023-02-28T05:23:51;-1.83;78.66
69359;HTU21D;56520;49.066;8.660;2023-02-28T05:26:16;-1.83;78.53
69359;HTU21D;56520;49.066;8.660;2023-02-28T05:28:42;-1.82;78.64
69359;HTU21D;56520;49.066;8.660;2023-02-28T05:31:10;-1.82;78.75
69359;HTU21D;56520;49.066;8.660;2023-02-28T05:33:38;-1.83;78.76
69359;HTU21D;56520;49.066;8.660;2023-02-28T05:36:05;-1.82;78.62
69359;HTU21D;56520;49.066;8.660;2023-02-28T05:38:31;-1.80;78.84
69359;HTU21D;56520;49.066;8.660;2023-02-28T05:40:56;-1.83;78.97
69359;HTU21D;56520;49.066;8.660;2023-02-28T05:43:22;-1.82;79.11
69359;HTU21D;56520;49.066;8.660;2023-02-28T05:45:48;-1.82;79.29
69359;HTU21D;56520;49.066;8.660;2023-02-28T05:48:13;-1.83;79.19
69359;HTU21D;56520;49.066;8.660;2023-02-28T05:50:39;-1.79;79.24
69359;HTU21D;56520;49.066;8.660;2023-02-28T05:53:05;-1.78;79.34
69359;HTU21D;56520;49.066;8.660;2023-02-28T05:55:30;-1.73;79.19
69359;HTU21D;56520;49.066;8.660;2023-02-28T05:57:56;-1.67;78.89
69359;HTU21D;56520;49.066;8.660;2023-02-28T06:00:24;-1.62;78.72
69359;HTU21D;56520;49.066;8.660;2023-02-28T06:02:50;-1.58;78.37
69359;HTU21D;56520;49.066;8.660;2023-02-28T06:05:17;-1.55;78.23
69359;HTU21D;56520;49.066;8.660;2023-02-28T06:07:43;-1.49;78.06
69359;HTU21D;56520;49.066;8.660;2023-02-28T06:10:10;-1.47;78.05
69359;HTU21D;56520;49.066;8.660;2023-02-28T06:12:36;-1.45;77.68
69359;HTU21D;56520;49.066;8.660;2023-02-28T06:15:02;-1.43;77.53
69359;HTU21D;56520;49.066;8.660;2023-02-28T06:17:28;-1.44;77.47
69359;HTU21D;56520;49.066;8.660;2023-02-28T06:19:53;-1.42;77.39
69359;HTU21D;56520;49.066;8.660;2023-02-28T06:22:18;-1.39;77.39
69359;HTU21D;56520;49.066;8.660;2023-02-28T06:24:44;-1.38;77.39
69359;HTU21D;56520;49.066;8.660;2023-02-28T06:27:09;-1.33;77.08
69359;HTU21D;56520;49.066;8.660;2023-02-28T06:29:35;-1.32;77.11
69359;HTU21D;56520;49.066;8.660;2023-02-28T06:32:01;-1.31;76.76
69359;HTU21D;56520;49.066;8.660;2023-02-28T06:34:27;-1.28;77.08
69359;HTU21D;56520;49.066;8.660;2023-02-28T06:36:52;-1.27;76.96
69359;HTU21D;56520;49.066;8.660;2023-02-28T06:39:18;-1.23;77.13
69359;HTU21D;56520;49.066;8.660;2023-02-28T06:41:43;-1.18;76.53
69359;HTU21D;56520;49.066;8.660;2023-02-28T06:44:17;-1.11;76.70
69359;HTU21D;56520;49.066;8.660;2023-02-28T06:46:44;-1.05;76.15
69359;HTU21D;56520;49.066;8.660;2023-02-28T06:49:10;-1.05;75.80
69359;HTU21D;56520;49.066;8.660;2023-02-28T06:51:39;-1.02;75.49
69359;HTU21D;56520;49.066;8.660;2023-02-28T06:54:05;-1.02;75.73
69359;HTU21D;56520;49.066;8.660;2023-02-28T06:56:34;-0.99;75.88
69359;HTU21D;56520;49.066;8.660;2023-02-28T06:59:00;-0.99;75.58
69359;HTU21D;56520;49.066;8.660;2023-02-28T07:01:25;-0.99;75.69
69359;HTU21D;56520;49.066;8.660;2023-02-28T07:03:53;-0.96;75.60
69359;HTU21D;56520;49.066;8.660;2023-02-28T07:06:20;-0.94;75.24
69359;HTU21D;56520;49.066;8.660;2023-02-28T07:08:48;-0.94;75.26
69359;HTU21D;56520;49.066;8.660;2023-02-28T07:11:13;-0.93;75.25
69359;HTU21D;56520;49.066;8.660;2023-02-28T07:13:39;-0.88;75.39
69359;HTU21D;56520;49.066;8.660;2023-02-28T07:16:09;-0.86;75.02
69359;HTU21D;56520;49.066;8.660;2023-02-28T07:18:36;-0.85;75.36
69359;HTU21D;56520;49.066;8.660;2023-02-28T07:21:03;-0.84;75.21
69359;HTU21D;56520;49.066;8.660;2023-02-28T07:23:28;-0.81;74.99
69359;HTU21D;56520;49.066;8.660;2023-02-28T07:25:54;-0.76;74.54
69359;HTU21D;56520;49.066;8.660;2023-02-28T07:28:19;-0.74;74.62
69359;HTU21D;56520;49.066;8.660;2023-02-28T07:30:45;-0.70;74.70
69359;HTU21D;56520;49.066;8.660;2023-02-28T07:33:10;-0.65;74.28
69359;HTU21D;56520;49.066;8.660;2023-02-28T07:35:36;-0.61;74.33
69359;HTU21D;56520;49.066;8.660;2023-02-28T07:38:02;-0.58;74.02
69359;HTU21D;56520;49.066;8.660;2023-02-28T07:40:28;-0.53;74.14
69359;HTU21D;56520;49.066;8.660;2023-02-28T07:42:54;-0.50;73.59
69359;HTU21D;56520;49.066;8.660;2023-02-28T07:45:19;-0.46;73.53
69359;HTU21D;56520;49.066;8.660;2023-02-28T07:47:45;-0.46;73.80
69359;HTU21D;56520;49.066;8.660;2023-02-28T07:50:13;-0.44;73.01
69359;HTU21D;56520;49.066;8.660;2023-02-28T07:52:40;-0.39;73.19
69359;HTU21D;56520;49.066;8.660;2023-02-28T07:55:06;-0.38;73.09
69359;HTU21D;56520;49.066;8.660;2023-02-28T07:57:32;-0.34;72.61
69359;HTU21D;56520;49.066;8.660;2023-02-28T07:59:58;-0.29;72.78
69359;HTU21D;56520;49.066;8.660;2023-02-28T08:02:23;-0.20;73.09
69359;HTU21D;56520;49.066;8.660;2023-02-28T08:04:49;-0.09;73.11
69359;HTU21D;56520;49.066;8.660;2023-02-28T08:07:15;0.02;73.38
69359;HTU21D;56520;49.066;8.660;2023-02-28T08:09:41;0.07;71.73
69359;HTU21D;56520;49.066;8.660;2023-02-28T08:12:08;0.05;71.87
69359;HTU21D;56520;49.066;8.660;2023-02-28T08:14:34;0.04;72.08
69359;HTU21D;56520;49.066;8.660;2023-02-28T08:17:00;0.10;72.14
69359;HTU21D;56520;49.066;8.660;2023-02-28T08:19:25;0.19;72.24
69359;HTU21D;56520;49.066;8.660;2023-02-28T08:21:51;0.27;71.44
69359;HTU21D;56520;49.066;8.660;2023-02-28T08:24:16;0.21;71.31
69359;HTU21D;56520;49.066;8.660;2023-02-28T08:26:42;0.16;70.84
69359;HTU21D;56520;49.066;8.660;2023-02-28T08:29:07;0.19;71.28
69359;HTU21D;56520;49.066;8.660;2023-02-28T08:31:33;0.25;71.23
69359;HTU21D;56520;49.066;8.660;2023-02-28T08:34:04;0.32;71.37
69359;HTU21D;56520;49.066;8.660;2023-02-28T08:36:30;0.33;71.64
69359;HTU21D;56520;49.066;8.660;2023-02-28T08:38:56;0.42;71.73
69359;HTU21D;56520;49.066;8.660;2023-02-28T08:41:23;0.44;70.48
69359;HTU21D;56520;49.066;8.660;2023-02-28T08:43:48;0.38;70.86
69359;HTU21D;56520;49.066;8.660;2023-02-28T08:46:14;0.36;71.19
69359;HTU21D;56520;49.066;8.660;2023-02-28T08:48:39;0.25;70.71
69359;HTU21D;56520;49.066;8.660;2023-02-28T08:51:08;0.16;70.77
69359;HTU21D;56520;49.066;8.660;2023-02-28T08:53:38;0.17;70.90
69359;HTU21D;56520;49.066;8.660;2023-02-28T08:56:22;0.25;70.80
69359;HTU21D;56520;49.066;8.660;2023-02-28T08:58:49;0.37;71.19
69359;HTU21D;56520;49.066;8.660;2023-02-28T09:01:17;0.66;71.55
69359;HTU21D;56520;49.066;8.660;2023-02-28T09:03:43;1.05;69.57
69359;HTU21D;56520;49.066;8.660;2023-02-28T09:06:10;1.21;67.62
69359;HTU21D;56520;49.066;8.660;2023-02-28T09:08:36;1.48;67.14
69359;HTU21D;56520;49.066;8.660;2023-02-28T09:11:02;1.96;66.17
69359;HTU21D;56520;49.066;8.660;2023-02-28T09:13:28;2.49;63.89
69359;HTU21D;56520;49.066;8.660;2023-02-28T09:15:56;2.78;61.31
69359;HTU21D;56520;49.066;8.660;2023-02-28T09:18:22;2.84;62.85
69359;HTU21D;56520;49.066;8.660;2023-02-28T09:20:48;3.21;63.12
69359;HTU21D;56520;49.066;8.660;2023-02-28T09:23:13;3.61;60.76
69359;HTU21D;56520;49.066;8.660;2023-02-28T09:25:52;3.93;59.02
69359;HTU21D;56520;49.066;8.660;2023-02-28T09:28:18;3.86;59.49
69359;HTU21D;56520;49.066;8.660;2023-02-28T09:30:45;4.05;58.79
69359;HTU21D;56520;49.066;8.660;2023-02-28T09:33:11;4.28;58.73
69359;HTU21D;56520;49.066;8.660;2023-02-28T09:35:37;4.26;58.69
69359;HTU21D;56520;49.066;8.660;2023-02-28T09:38:03;4.49;58.14
69359;HTU21D;56520;49.066;8.660;2023-02-28T09:40:29;4.63;57.22
69359;HTU21D;56520;49.066;8.660;2023-02-28T09:42:57;4.83;55.08
69359;HTU21D;56520;49.066;8.660;2023-02-28T09:45:30;4.78;55.98
69359;HTU21D;56520;49.066;8.660;2023-02-28T09:48:01;4.58;56.28
69359;HTU21D;56520;49.066;8.660;2023-02-28T09:51:03;4.17;55.84
69359;HTU21D;56520;49.066;8.660;2023-02-28T09:53:32;3.72;58.38
69359;HTU21D;56520;49.066;8.660;2023-02-28T10:01:18;3.52;59.52
69359;HTU21D;56520;49.066;8.660;2023-02-28T10:06:20;3.45;60.00
69359;HTU21D;56520;49.066;8.660;2023-02-28T10:08:57;3.87;59.64
69359;HTU21D;56520;49.066;8.660;2023-02-28T10:11:27;4.09;57.93
69359;HTU21D;56520;49.066;8.660;2023-02-28T10:16:55;3.77;58.36
69359;HTU21D;56520;49.066;8.660;2023-02-28T10:25:24;3.43;60.51
69359;HTU21D;56520;49.066;8.660;2023-02-28T10:28:05;3.30;59.93
69359;HTU21D;56520;49.066;8.660;2023-02-28T10:30:31;3.06;60.23
69359;HTU21D;56520;49.066;8.660;2023-02-28T10:32:56;3.00;60.31
69359;HTU21D;56520;49.066;8.660;2023-02-28T10:35:25;3.10;61.42
69359;HTU21D;56520;49.066;8.660;2023-02-28T10:37:56;3.27;60.63
69359;HTU21D;56520;49.066;8.660;2023-02-28T10:42:56;3.34;60.84
69359;HTU21D;56520;49.066;8.660;2023-02-28T10:45:23;3.39;60.12
69359;HTU21D;56520;49.066;8.660;2023-02-28T10:50:43;3.16;60.06
69359;HTU21D;56520;49.066;8.660;2023-02-28T10:55:41;3.46;59.56
69359;HTU21D;56520;49.066;8.660;2023-02-28T10:58:20;3.43;59.67
69359;HTU21D;56520;49.066;8.660;2023-02-28T11:00:46;3.47;59.08
69359;HTU21D;56520;49.066;8.660;2023-02-28T11:03:32;3.42;59.54
69359;HTU21D;56520;49.066;8.660;2023-02-28T11:06:03;3.40;60.12
69359;HTU21D;56520;49.066;8.660;2023-02-28T11:08:29;3.58;59.93
69359;HTU21D;56520;49.066;8.660;2023-02-28T11:10:55;3.70;60.11
69359;HTU21D;56520;49.066;8.660;2023-02-28T11:13:26;3.70;58.35
69359;HTU21D;56520;49.066;8.660;2023-02-28T11:15:59;3.67;58.50
69359;HTU21D;56520;49.066;8.660;2023-02-28T11:23:52;4.00;58.49
69359;HTU21D;56520;49.066;8.660;2023-02-28T11:26:59;4.20;57.32
69359;HTU21D;56520;49.066;8.660;2023-02-28T11:34:35;4.06;57.51
69359;HTU21D;56520;49.066;8.660;2023-02-28T11:37:02;4.21;57.45
69359;HTU21D;56520;49.066;8.660;2023-02-28T11:39:31;4.35;57.24
69359;HTU21D;56520;49.066;8.660;2023-02-28T11:42:23;4.56;56.61
69359;HTU21D;56520;49.066;8.660;2023-02-28T11:45:07;4.72;55.55
69359;HTU21D;56520;49.066;8.660;2023-02-28T11:47:53;4.86;56.36
69359;HTU21D;56520;49.066;8.660;2023-02-28T11:54:09;5.10;53.13
69359;HTU21D;56520;49.066;8.660;2023-02-28T11:57:49;4.91;54.11
69359;HTU21D;56520;49.066;8.660;2023-02-28T12:05:46;5.46;52.86
69359;HTU21D;56520;49.066;8.660;2023-02-28T12:09:02;5.39;50.88
69359;HTU21D;56520;49.066;8.660;2023-02-28T12:11:39;5.18;53.56
69359;HTU21D;56520;49.066;8.660;2023-02-28T12:17:15;5.16;52.00
69359;HTU21D;56520;49.066;8.660;2023-02-28T12:22:41;5.43;52.19
69359;HTU21D;56520;49.066;8.660;2023-02-28T12:25:21;5.28;52.56
69359;HTU21D;56520;49.066;8.660;2023-02-28T12:27:49;5.25;51.34
69359;HTU21D;56520;49.066;8.660;2023-02-28T12:32:47;5.28;52.20
69359;HTU21D;56520;49.066;8.660;2023-02-28T12:35:17;5.18;53.01
69359;HTU21D;56520;49.066;8.660;2023-02-28T12:38:09;5.17;52.33
69359;HTU21D;56520;49.066;8.660;2023-02-28T12:41:11;5.20;52.61
69359;HTU21D;56520;49.066;8.660;2023-02-28T12:43:42;5.15;53.93
69359;HTU21D;56520;49.066;8.660;2023-02-28T12:46:16;5.25;53.91
69359;HTU21D;56520;49.066;8.660;2023-02-28T12:48:50;5.35;52.51
69359;HTU21D;56520;49.066;8.660;2023-02-28T12:51:21;5.21;53.60
69359;HTU21D;56520;49.066;8.660;2023-02-28T13:10:00;5.57;52.30
69359;HTU21D;56520;49.066;8.660;2023-02-28T13:12:27;5.55;53.04
69359;HTU21D;56520;49.066;8.660;2023-02-28T13:15:07;5.80;52.53
69359;HTU21D;56520;49.066;8.660;2023-02-28T13:17:39;5.99;52.49
69359;HTU21D;56520;49.066;8.660;2023-02-28T13:20:23;6.00;52.28
69359;HTU21D;56520;49.066;8.660;2023-02-28T13:22:53;5.91;52.31
69359;HTU21D;56520;49.066;8.660;2023-02-28T13:27:55;6.22;51.41
69359;HTU21D;56520;49.066;8.660;2023-02-28T13:33:32;6.26;51.87
69359;HTU21D;56520;49.066;8.660;2023-02-28T13:36:25;6.11;51.95
69359;HTU21D;56520;49.066;8.660;2023-02-28T13:38:56;5.86;51.37
69359;HTU21D;56520;49.066;8.660;2023-02-28T13:44:15;5.46;52.71
69359;HTU21D;56520;49.066;8.660;2023-02-28T13:57:29;5.80;52.15
69359;HTU21D;56520;49.066;8.660;2023-02-28T14:00:03;5.90;52.40
69359;HTU21D;56520;49.066;8.660;2023-02-28T14:05:33;6.23;51.05
69359;HTU21D;56520;49.066;8.660;2023-02-28T14:08:06;6.10;52.06
69359;HTU21D;56520;49.066;8.660;2023-02-28T14:10:45;6.24;51.42
69359;HTU21D;56520;49.066;8.660;2023-02-28T14:13:40;6.44;50.93
69359;HTU21D;56520;49.066;8.660;2023-02-28T14:16:34;6.61;51.88
69359;HTU21D;56520;49.066;8.660;2023-02-28T14:19:03;6.91;50.15
69359;HTU21D;56520;49.066;8.660;2023-02-28T14:21:36;7.02;51.59
69359;HTU21D;56520;49.066;8.660;2023-02-28T14:24:46;7.04;49.58
69359;HTU21D;56520;49.066;8.660;2023-02-28T14:27:47;6.46;50.17
69359;HTU21D;56520;49.066;8.660;2023-02-28T14:38:21;6.08;51.38
69359;HTU21D;56520;49.066;8.660;2023-02-28T14:40:51;5.95;51.14
69359;HTU21D;56520;49.066;8.660;2023-02-28T14:43:25;5.89;52.16
69359;HTU21D;56520;49.066;8.660;2023-02-28T14:45:56;5.81;52.79
69359;HTU21D;56520;49.066;8.660;2023-02-28T14:48:26;5.89;52.59
69359;HTU21D;56520;49.066;8.660;2023-02-28T14:50:57;5.89;52.72
69359;HTU21D;56520;49.066;8.660;2023-02-28T14:53:27;5.95;52.31
69359;HTU21D;56520;49.066;8.660;2023-02-28T14:55:53;6.13;53.01
69359;HTU21D;56520;49.066;8.660;2023-02-28T14:58:25;6.21;51.71
69359;HTU21D;56520;49.066;8.660;2023-02-28T15:00:54;6.20;50.98
69359;HTU21D;56520;49.066;8.660;2023-02-28T15:06:15;6.17;52.05
69359;HTU21D;56520;49.066;8.660;2023-02-28T15:08:43;6.07;51.51
69359;HTU21D;56520;49.066;8.660;2023-02-28T15:11:19;5.84;52.63
69359;HTU21D;56520;49.066;8.660;2023-02-28T15:13:50;5.85;52.96
69359;HTU21D;56520;49.066;8.660;2023-02-28T15:16:35;5.93;52.91
69359;HTU21D;56520;49.066;8.660;2023-02-28T15:21:38;5.70;52.64
69359;HTU21D;56520;49.066;8.660;2023-02-28T15:24:30;5.55;52.59
69359;HTU21D;56520;49.066;8.660;2023-02-28T15:26:59;5.43;53.82
69359;HTU21D;56520;49.066;8.660;2023-02-28T15:29:29;5.36;54.02
69359;HTU21D;56520;49.066;8.660;2023-02-28T15:34:39;5.21;53.98
69359;HTU21D;56520;49.066;8.660;2023-02-28T15:37:27;5.12;54.42
69359;HTU21D;56520;49.066;8.660;2023-02-28T15:39:58;5.08;54.65
69359;HTU21D;56520;49.066;8.660;2023-02-28T15:42:30;5.00;55.17
69359;HTU21D;56520;49.066;8.660;2023-02-28T15:44:56;4.90;55.23
69359;HTU21D;56520;49.066;8.660;2023-02-28T15:47:24;4.81;55.49
69359;HTU21D;56520;49.066;8.660;2023-02-28T15:50:00;4.78;56.04
69359;HTU21D;56520;49.066;8.660;2023-02-28T15:52:45;4.66;55.90
69359;HTU21D;56520;49.066;8.660;2023-02-28T15:55:24;4.54;56.51
69359;HTU21D;56520;49.066;8.660;2023-02-28T15:57:53;4.45;56.49
69359;HTU21D;56520;49.066;8.660;2023-02-28T16:00:23;4.33;56.71
69359;HTU21D;56520;49.066;8.660;2023-02-28T16:02:49;4.24;56.87
69359;HTU21D;56520;49.066;8.660;2023-02-28T16:05:23;4.18;57.29
69359;HTU21D;56520;49.066;8.660;2023-02-28T16:07:55;4.08;57.21
69359;HTU21D;56520;49.066;8.660;2023-02-28T16:10:21;4.00;58.35
69359;HTU21D;56520;49.066;8.660;2023-02-28T16:12:50;3.95;57.61
69359;HTU21D;56520;49.066;8.660;2023-02-28T16:17:47;3.85;58.65
69359;HTU21D;56520;49.066;8.660;2023-02-28T16:20:14;3.79;58.23
69359;HTU21D;56520;49.066;8.660;2023-02-28T16:22:40;3.73;58.57
69359;HTU21D;56520;49.066;8.660;2023-02-28T16:25:12;3.67;59.09
69359;HTU21D;56520;49.066;8.660;2023-02-28T16:27:38;3.62;59.27
69359;HTU21D;56520;49.066;8.660;2023-02-28T16:30:05;3.59;59.16
69359;HTU21D;56520;49.066;8.660;2023-02-28T16:32:34;3.53;59.46
69359;HTU21D;56520;49.066;8.660;2023-02-28T16:35:01;3.45;59.65
69359;HTU21D;56520;49.066;8.660;2023-02-28T16:37:27;3.39;59.54
69359;HTU21D;56520;49.066;8.660;2023-02-28T16:39:53;3.32;59.51
69359;HTU21D;56520;49.066;8.660;2023-02-28T16:42:22;3.27;59.86
69359;HTU21D;56520;49.066;8.660;2023-02-28T16:44:50;3.20;59.93
69359;HTU21D;56520;49.066;8.660;2023-02-28T16:47:15;3.13;60.58
69359;HTU21D;56520;49.066;8.660;2023-02-28T16:49:41;3.04;60.60
69359;HTU21D;56520;49.066;8.660;2023-02-28T16:52:09;2.94;60.81
69359;HTU21D;56520;49.066;8.660;2023-02-28T16:54:34;2.85;61.54
69359;HTU21D;56520;49.066;8.660;2023-02-28T16:57:01;2.78;61.63
69359;HTU21D;56520;49.066;8.660;2023-02-28T16:59:27;2.69;61.97
69359;HTU21D;56520;49.066;8.660;2023-02-28T17:01:56;2.65;61.99
69359;HTU21D;56520;49.066;8.660;2023-02-28T17:04:27;2.59;62.41
69359;HTU21D;56520;49.066;8.660;2023-02-28T17:06:53;2.51;62.33
69359;HTU21D;56520;49.066;8.660;2023-02-28T17:09:22;2.41;62.54
69359;HTU21D;56520;49.066;8.660;2023-02-28T17:11:48;2.36;62.66
69359;HTU21D;56520;49.066;8.660;2023-02-28T17:14:14;2.29;62.67
69359;HTU21D;56520;49.066;8.660;2023-02-28T17:16:40;2.21;62.79
69359;HTU21D;56520;49.066;8.660;2023-02-28T17:19:11;2.12;63.37
69359;HTU21D;56520;49.066;8.660;2023-02-28T17:21:37;2.09;63.37
69359;HTU21D;56520;49.066;8.660;2023-02-28T17:24:06;2.01;63.71
69359;HTU21D;56520;49.066;8.660;2023-02-28T17:26:32;1.94;63.82
69359;HTU21D;56520;49.066;8.660;2023-02-28T17:29:00;1.91;64.42
69359;HTU21D;56520;49.066;8.660;2023-02-28T17:31:26;1.88;64.27
69359;HTU21D;56520;49.066;8.660;2023-02-28T17:33:53;1.87;64.39
69359;HTU21D;56520;49.066;8.660;2023-02-28T17:36:24;1.83;64.62
69359;HTU21D;56520;49.066;8.660;2023-02-28T17:38:52;1.80;64.54
69359;HTU21D;56520;49.066;8.660;2023-02-28T17:41:18;1.72;64.82
69359;HTU21D;56520;49.066;8.660;2023-02-28T17:43:44;1.67;64.63
69359;HTU21D;56520;49.066;8.660;2023-02-28T17:46:16;1.61;64.56
69359;HTU21D;56520;49.066;8.660;2023-02-28T17:48:43;1.50;64.83
69359;HTU21D;56520;49.066;8.660;2023-02-28T17:51:12;1.41;64.92
69359;HTU21D;56520;49.066;8.660;2023-02-28T17:53:37;1.29;65.07
69359;HTU21D;56520;49.066;8.660;2023-02-28T17:56:03;1.20;65.77
69359;HTU21D;56520;49.066;8.660;2023-02-28T17:58:28;1.13;65.60